Terminal Aerodrome Forecast
Issued by NWS

Home | Current Version | Previous Version | Text Only | Print | Product List | Glossary On
Versions: 1 2 3 4 5 6 7 8 9 10 11 12 13 14 15 16 17 18 19 20 21 22 23 24 25 26 27 28 29 30 31 32 33 34 35 36
000
FTUS43 KGLD 051741
TAFMCK
TAF
KMCK 051741Z 0518/0618 15015G20KT P6SM SKC
     FM052100 18017G23KT P6SM SKC
     FM060500 30016G20KT P6SM VCTS BKN090CB
     FM060900 35010KT P6SM OVC200
     FM061300 35018KT P6SM OVC010
     FM061700 36018G25KT P6SM SCT020 BKN150=

USA.gov is the U.S. government's official web portal to all federal, state and local government web resources and services.